sensor_id;sensor_type;location;lat;lon;timestamp;P1;durP1;ratioP1;P2;durP2;ratioP2
51451;SDS011;37521;52.020;-1.740;2023-10-13T00:00:41;0.10;;;0.10;;
51451;SDS011;37521;52.020;-1.740;2023-10-13T00:03:10;0.20;;;0.20;;
51451;SDS011;37521;52.020;-1.740;2023-10-13T00:05:44;0.10;;;0.10;;
51451;SDS011;37521;52.020;-1.740;2023-10-13T00:08:12;0.43;;;0.22;;
51451;SDS011;37521;52.020;-1.740;2023-10-13T00:10:41;0.20;;;0.20;;
51451;SDS011;37521;52.020;-1.740;2023-10-13T00:13:10;0.17;;;0.17;;
51451;SDS011;37521;52.020;-1.740;2023-10-13T00:15:44;0.05;;;0.05;;
51451;SDS011;37521;52.020;-1.740;2023-10-13T00:18:24;0.32;;;0.10;;
51451;SDS011;37521;52.020;-1.740;2023-10-13T00:21:02;0.15;;;0.08;;
51451;SDS011;37521;52.020;-1.740;2023-10-13T00:23:39;0.20;;;0.00;;
51451;SDS011;37521;52.020;-1.740;2023-10-13T00:26:19;0.10;;;0.10;;
51451;SDS011;37521;52.020;-1.740;2023-10-13T00:28:53;3.22;;;0.30;;
51451;SDS011;37521;52.020;-1.740;2023-10-13T00:31:36;0.10;;;0.10;;
51451;SDS011;37521;52.020;-1.740;2023-10-13T00:34:07;0.38;;;0.10;;
51451;SDS011;37521;52.020;-1.740;2023-10-13T00:36:40;0.28;;;0.03;;
51451;SDS011;37521;52.020;-1.740;2023-10-13T00:39:15;0.10;;;0.10;;
51451;SDS011;37521;52.020;-1.740;2023-10-13T00:41:44;0.40;;;0.15;;
51451;SDS011;37521;52.020;-1.740;2023-10-13T00:44:18;0.65;;;0.57;;
51451;SDS011;37521;52.020;-1.740;2023-10-13T00:46:55;0.00;;;0.00;;
51451;SDS011;37521;52.020;-1.740;2023-10-13T00:49:23;0.03;;;0.03;;
51451;SDS011;37521;52.020;-1.740;2023-10-13T00:51:54;0.10;;;0.10;;
51451;SDS011;37521;52.020;-1.740;2023-10-13T00:54:23;0.40;;;0.13;;
51451;SDS011;37521;52.020;-1.740;2023-10-13T00:56:54;0.47;;;0.10;;
51451;SDS011;37521;52.020;-1.740;2023-10-13T00:59:31;0.10;;;0.10;;
51451;SDS011;37521;52.020;-1.740;2023-10-13T01:02:03;0.17;;;0.10;;
51451;SDS011;37521;52.020;-1.740;2023-10-13T01:04:51;1.65;;;0.20;;
51451;SDS011;37521;52.020;-1.740;2023-10-13T01:07:22;0.00;;;0.00;;
51451;SDS011;37521;52.020;-1.740;2023-10-13T01:09:51;0.00;;;0.00;;
51451;SDS011;37521;52.020;-1.740;2023-10-13T01:12:20;0.10;;;0.10;;
51451;SDS011;37521;52.020;-1.740;2023-10-13T01:14:50;0.10;;;0.10;;
51451;SDS011;37521;52.020;-1.740;2023-10-13T01:17:18;0.52;;;0.32;;
51451;SDS011;37521;52.020;-1.740;2023-10-13T01:19:50;0.00;;;0.00;;
51451;SDS011;37521;52.020;-1.740;2023-10-13T01:22:26;0.55;;;0.10;;
51451;SDS011;37521;52.020;-1.740;2023-10-13T01:24:56;0.50;;;0.30;;
51451;SDS011;37521;52.020;-1.740;2023-10-13T01:27:39;0.20;;;0.10;;
51451;SDS011;37521;52.020;-1.740;2023-10-13T01:30:08;0.00;;;0.00;;
51451;SDS011;37521;52.020;-1.740;2023-10-13T01:32:39;0.47;;;0.47;;
51451;SDS011;37521;52.020;-1.740;2023-10-13T01:35:12;1.23;;;0.90;;
51451;SDS011;37521;52.020;-1.740;2023-10-13T01:37:40;1.00;;;0.60;;
51451;SDS011;37521;52.020;-1.740;2023-10-13T01:40:10;2.78;;;1.15;;
51451;SDS011;37521;52.020;-1.740;2023-10-13T01:42:45;3.67;;;1.10;;
51451;SDS011;37521;52.020;-1.740;2023-10-13T01:45:13;3.50;;;2.45;;
51451;SDS011;37521;52.020;-1.740;2023-10-13T01:47:41;3.20;;;1.27;;
51451;SDS011;37521;52.020;-1.740;2023-10-13T01:50:13;1.73;;;1.63;;
51451;SDS011;37521;52.020;-1.740;2023-10-13T01:52:47;4.18;;;1.90;;
51451;SDS011;37521;52.020;-1.740;2023-10-13T01:55:16;3.55;;;1.88;;
51451;SDS011;37521;52.020;-1.740;2023-10-13T01:57:46;4.00;;;2.30;;
51451;SDS011;37521;52.020;-1.740;2023-10-13T02:00:14;6.20;;;2.20;;
51451;SDS011;37521;52.020;-1.740;2023-10-13T02:02:46;5.47;;;1.80;;
51451;SDS011;37521;52.020;-1.740;2023-10-13T02:05:17;5.05;;;2.13;;
51451;SDS011;37521;52.020;-1.740;2023-10-13T02:07:45;4.03;;;2.58;;
51451;SDS011;37521;52.020;-1.740;2023-10-13T02:10:13;4.10;;;1.90;;
51451;SDS011;37521;52.020;-1.740;2023-10-13T02:12:43;5.20;;;2.30;;
51451;SDS011;37521;52.020;-1.740;2023-10-13T02:15:12;3.75;;;2.55;;
51451;SDS011;37521;52.020;-1.740;2023-10-13T02:17:48;4.30;;;2.00;;
51451;SDS011;37521;52.020;-1.740;2023-10-13T02:20:19;5.60;;;2.72;;
51451;SDS011;37521;52.020;-1.740;2023-10-13T02:22:49;3.47;;;2.33;;
51451;SDS011;37521;52.020;-1.740;2023-10-13T02:25:20;5.65;;;2.42;;
51451;SDS011;37521;52.020;-1.740;2023-10-13T02:28:03;5.80;;;2.63;;
51451;SDS011;37521;52.020;-1.740;2023-10-13T02:30:37;4.70;;;2.90;;
51451;SDS011;37521;52.020;-1.740;2023-10-13T02:33:05;3.17;;;1.80;;
51451;SDS011;37521;52.020;-1.740;2023-10-13T02:35:33;6.03;;;2.53;;
51451;SDS011;37521;52.020;-1.740;2023-10-13T02:38:02;3.55;;;2.15;;
51451;SDS011;37521;52.020;-1.740;2023-10-13T02:40:39;4.85;;;2.45;;
51451;SDS011;37521;52.020;-1.740;2023-10-13T02:43:06;3.08;;;2.47;;
51451;SDS011;37521;52.020;-1.740;2023-10-13T02:45:35;3.13;;;2.13;;
51451;SDS011;37521;52.020;-1.740;2023-10-13T02:48:04;3.80;;;2.45;;
51451;SDS011;37521;52.020;-1.740;2023-10-13T02:50:40;3.00;;;2.38;;
51451;SDS011;37521;52.020;-1.740;2023-10-13T02:53:12;5.25;;;2.00;;
51451;SDS011;37521;52.020;-1.740;2023-10-13T02:55:50;3.55;;;2.17;;
51451;SDS011;37521;52.020;-1.740;2023-10-13T02:58:19;3.08;;;2.10;;
51451;SDS011;37521;52.020;-1.740;2023-10-13T03:00:47;3.28;;;1.90;;
51451;SDS011;37521;52.020;-1.740;2023-10-13T03:03:16;7.53;;;2.63;;
51451;SDS011;37521;52.020;-1.740;2023-10-13T03:05:45;2.78;;;1.88;;
51451;SDS011;37521;52.020;-1.740;2023-10-13T03:08:14;2.63;;;2.00;;
51451;SDS011;37521;52.020;-1.740;2023-10-13T03:10:54;3.88;;;2.65;;
51451;SDS011;37521;52.020;-1.740;2023-10-13T03:13:22;3.35;;;2.45;;
51451;SDS011;37521;52.020;-1.740;2023-10-13T03:15:51;4.30;;;2.80;;
51451;SDS011;37521;52.020;-1.740;2023-10-13T03:18:18;3.70;;;2.30;;
51451;SDS011;37521;52.020;-1.740;2023-10-13T03:20:46;4.45;;;1.92;;
51451;SDS011;37521;52.020;-1.740;2023-10-13T03:23:17;3.22;;;2.08;;
51451;SDS011;37521;52.020;-1.740;2023-10-13T03:25:46;2.08;;;1.88;;
51451;SDS011;37521;52.020;-1.740;2023-10-13T03:30:52;4.38;;;1.95;;
51451;SDS011;37521;52.020;-1.740;2023-10-13T03:33:21;3.08;;;1.77;;
51451;SDS011;37521;52.020;-1.740;2023-10-13T03:35:53;6.05;;;2.58;;
51451;SDS011;37521;52.020;-1.740;2023-10-13T03:38:32;2.58;;;2.00;;
51451;SDS011;37521;52.020;-1.740;2023-10-13T03:41:03;3.72;;;2.22;;
51451;SDS011;37521;52.020;-1.740;2023-10-13T03:43:40;7.82;;;2.58;;
51451;SDS011;37521;52.020;-1.740;2023-10-13T03:46:17;2.47;;;1.88;;
51451;SDS011;37521;52.020;-1.740;2023-10-13T03:48:48;4.80;;;2.25;;
51451;SDS011;37521;52.020;-1.740;2023-10-13T03:51:21;5.03;;;2.72;;
51451;SDS011;37521;52.020;-1.740;2023-10-13T03:53:58;3.90;;;2.65;;
51451;SDS011;37521;52.020;-1.740;2023-10-13T03:56:35;3.45;;;2.75;;
51451;SDS011;37521;52.020;-1.740;2023-10-13T03:59:10;4.45;;;2.67;;
51451;SDS011;37521;52.020;-1.740;2023-10-13T04:01:46;5.47;;;2.47;;
51451;SDS011;37521;52.020;-1.740;2023-10-13T04:04:25;10.35;;;2.60;;
51451;SDS011;37521;52.020;-1.740;2023-10-13T04:07:15;7.20;;;3.38;;
51451;SDS011;37521;52.020;-1.740;2023-10-13T04:09:57;5.05;;;3.78;;
51451;SDS011;37521;52.020;-1.740;2023-10-13T04:12:43;4.18;;;3.55;;
51451;SDS011;37521;52.020;-1.740;2023-10-13T04:15:30;5.20;;;3.20;;
51451;SDS011;37521;52.020;-1.740;2023-10-13T04:18:10;6.07;;;3.20;;
51451;SDS011;37521;52.020;-1.740;2023-10-13T04:20:52;9.32;;;3.45;;
51451;SDS011;37521;52.020;-1.740;2023-10-13T04:23:34;5.28;;;3.60;;
51451;SDS011;37521;52.020;-1.740;2023-10-13T04:26:24;8.65;;;3.20;;
51451;SDS011;37521;52.020;-1.740;2023-10-13T04:29:03;5.38;;;4.05;;
51451;SDS011;37521;52.020;-1.740;2023-10-13T04:31:38;9.50;;;4.35;;
51451;SDS011;37521;52.020;-1.740;2023-10-13T04:34:24;9.55;;;4.07;;
51451;SDS011;37521;52.020;-1.740;2023-10-13T04:37:04;7.15;;;3.65;;
51451;SDS011;37521;52.020;-1.740;2023-10-13T04:39:55;9.32;;;4.28;;
51451;SDS011;37521;52.020;-1.740;2023-10-13T04:42:36;12.23;;;4.53;;
51451;SDS011;37521;52.020;-1.740;2023-10-13T04:45:16;14.65;;;4.78;;
51451;SDS011;37521;52.020;-1.740;2023-10-13T04:48:04;11.68;;;4.68;;
51451;SDS011;37521;52.020;-1.740;2023-10-13T04:51:01;13.68;;;5.00;;
51451;SDS011;37521;52.020;-1.740;2023-10-13T04:53:46;6.97;;;4.15;;
51451;SDS011;37521;52.020;-1.740;2023-10-13T04:56:31;7.70;;;4.22;;
51451;SDS011;37521;52.020;-1.740;2023-10-13T04:59:19;12.32;;;4.25;;
51451;SDS011;37521;52.020;-1.740;2023-10-13T05:02:01;7.72;;;3.67;;
51451;SDS011;37521;52.020;-1.740;2023-10-13T05:04:49;7.28;;;4.15;;
51451;SDS011;37521;52.020;-1.740;2023-10-13T05:07:36;8.98;;;4.32;;
51451;SDS011;37521;52.020;-1.740;2023-10-13T05:10:24;9.80;;;5.13;;
51451;SDS011;37521;52.020;-1.740;2023-10-13T05:13:10;8.82;;;4.20;;
51451;SDS011;37521;52.020;-1.740;2023-10-13T05:15:56;14.07;;;5.03;;
51451;SDS011;37521;52.020;-1.740;2023-10-13T05:18:42;9.20;;;4.40;;
51451;SDS011;37521;52.020;-1.740;2023-10-13T05:21:29;9.93;;;4.05;;
51451;SDS011;37521;52.020;-1.740;2023-10-13T05:24:15;12.07;;;4.40;;
51451;SDS011;37521;52.020;-1.740;2023-10-13T05:27:01;11.90;;;4.32;;
51451;SDS011;37521;52.020;-1.740;2023-10-13T05:29:47;8.23;;;4.28;;
51451;SDS011;37521;52.020;-1.740;2023-10-13T05:32:33;11.73;;;5.00;;
51451;SDS011;37521;52.020;-1.740;2023-10-13T05:35:19;5.85;;;4.65;;
51451;SDS011;37521;52.020;-1.740;2023-10-13T05:38:07;13.13;;;4.32;;
51451;SDS011;37521;52.020;-1.740;2023-10-13T05:40:53;13.02;;;4.32;;
51451;SDS011;37521;52.020;-1.740;2023-10-13T05:43:45;10.57;;;4.30;;
51451;SDS011;37521;52.020;-1.740;2023-10-13T05:46:31;8.85;;;3.85;;
51451;SDS011;37521;52.020;-1.740;2023-10-13T05:49:16;8.50;;;3.97;;
51451;SDS011;37521;52.020;-1.740;2023-10-13T05:52:02;10.68;;;4.55;;
51451;SDS011;37521;52.020;-1.740;2023-10-13T05:54:47;9.65;;;3.95;;
51451;SDS011;37521;52.020;-1.740;2023-10-13T05:57:33;14.02;;;4.05;;
51451;SDS011;37521;52.020;-1.740;2023-10-13T06:00:19;11.63;;;4.97;;
51451;SDS011;37521;52.020;-1.740;2023-10-13T06:03:05;7.13;;;3.92;;
51451;SDS011;37521;52.020;-1.740;2023-10-13T06:05:51;10.32;;;4.18;;
51451;SDS011;37521;52.020;-1.740;2023-10-13T06:08:37;14.93;;;4.35;;
51451;SDS011;37521;52.020;-1.740;2023-10-13T06:11:24;9.20;;;4.15;;
51451;SDS011;37521;52.020;-1.740;2023-10-13T06:14:10;11.20;;;4.38;;
51451;SDS011;37521;52.020;-1.740;2023-10-13T06:16:56;11.65;;;3.88;;
51451;SDS011;37521;52.020;-1.740;2023-10-13T06:19:42;12.48;;;4.60;;
51451;SDS011;37521;52.020;-1.740;2023-10-13T06:22:28;13.45;;;4.28;;
51451;SDS011;37521;52.020;-1.740;2023-10-13T06:25:14;7.38;;;4.00;;
51451;SDS011;37521;52.020;-1.740;2023-10-13T06:28:01;9.35;;;3.20;;
51451;SDS011;37521;52.020;-1.740;2023-10-13T06:30:53;12.15;;;4.30;;
51451;SDS011;37521;52.020;-1.740;2023-10-13T06:33:24;11.02;;;3.92;;
51451;SDS011;37521;52.020;-1.740;2023-10-13T06:35:56;13.57;;;4.35;;
51451;SDS011;37521;52.020;-1.740;2023-10-13T06:38:25;5.40;;;2.97;;
51451;SDS011;37521;52.020;-1.740;2023-10-13T06:40:57;10.43;;;3.78;;
51451;SDS011;37521;52.020;-1.740;2023-10-13T06:43:29;11.40;;;3.70;;
51451;SDS011;37521;52.020;-1.740;2023-10-13T06:46:00;13.60;;;4.13;;
51451;SDS011;37521;52.020;-1.740;2023-10-13T06:48:28;13.55;;;4.00;;
51451;SDS011;37521;52.020;-1.740;2023-10-13T06:51:00;16.05;;;3.88;;
51451;SDS011;37521;52.020;-1.740;2023-10-13T06:53:41;10.88;;;3.67;;
51451;SDS011;37521;52.020;-1.740;2023-10-13T06:56:13;10.27;;;3.28;;
51451;SDS011;37521;52.020;-1.740;2023-10-13T06:58:46;12.10;;;3.60;;
51451;SDS011;37521;52.020;-1.740;2023-10-13T07:01:14;8.27;;;3.47;;
51451;SDS011;37521;52.020;-1.740;2023-10-13T07:03:48;8.57;;;3.22;;
51451;SDS011;37521;52.020;-1.740;2023-10-13T07:06:20;13.27;;;3.72;;
51451;SDS011;37521;52.020;-1.740;2023-10-13T07:08:49;5.70;;;2.80;;
51451;SDS011;37521;52.020;-1.740;2023-10-13T07:11:23;9.20;;;3.13;;
51451;SDS011;37521;52.020;-1.740;2023-10-13T07:14:02;17.65;;;3.63;;
51451;SDS011;37521;52.020;-1.740;2023-10-13T07:16:42;12.77;;;3.42;;
51451;SDS011;37521;52.020;-1.740;2023-10-13T07:19:13;12.93;;;3.45;;
51451;SDS011;37521;52.020;-1.740;2023-10-13T07:21:48;12.27;;;3.22;;
51451;SDS011;37521;52.020;-1.740;2023-10-13T07:24:25;13.68;;;2.90;;
51451;SDS011;37521;52.020;-1.740;2023-10-13T07:27:01;8.50;;;2.75;;
51451;SDS011;37521;52.020;-1.740;2023-10-13T07:29:34;4.72;;;2.05;;
51451;SDS011;37521;52.020;-1.740;2023-10-13T07:32:03;8.02;;;3.22;;
51451;SDS011;37521;52.020;-1.740;2023-10-13T07:34:39;6.00;;;2.13;;
51451;SDS011;37521;52.020;-1.740;2023-10-13T07:37:08;7.13;;;2.30;;
51451;SDS011;37521;52.020;-1.740;2023-10-13T07:39:39;11.07;;;2.70;;
51451;SDS011;37521;52.020;-1.740;2023-10-13T07:42:09;2.95;;;2.08;;
51451;SDS011;37521;52.020;-1.740;2023-10-13T07:44:47;5.07;;;2.03;;
51451;SDS011;37521;52.020;-1.740;2023-10-13T07:47:16;7.72;;;2.33;;
51451;SDS011;37521;52.020;-1.740;2023-10-13T07:49:47;8.55;;;2.33;;
51451;SDS011;37521;52.020;-1.740;2023-10-13T07:52:17;8.15;;;2.15;;
51451;SDS011;37521;52.020;-1.740;2023-10-13T07:55:03;6.18;;;1.83;;
51451;SDS011;37521;52.020;-1.740;2023-10-13T07:57:47;9.98;;;1.98;;
51451;SDS011;37521;52.020;-1.740;2023-10-13T08:00:24;7.50;;;1.98;;
51451;SDS011;37521;52.020;-1.740;2023-10-13T08:03:14;5.28;;;1.40;;
51451;SDS011;37521;52.020;-1.740;2023-10-13T08:06:02;4.72;;;1.80;;
51451;SDS011;37521;52.020;-1.740;2023-10-13T08:08:47;5.45;;;1.65;;
51451;SDS011;37521;52.020;-1.740;2023-10-13T08:11:21;10.85;;;1.73;;
51451;SDS011;37521;52.020;-1.740;2023-10-13T08:14:01;13.70;;;1.98;;
51451;SDS011;37521;52.020;-1.740;2023-10-13T08:17:06;5.65;;;1.50;;
51451;SDS011;37521;52.020;-1.740;2023-10-13T08:19:37;6.43;;;2.28;;
51451;SDS011;37521;52.020;-1.740;2023-10-13T08:22:12;8.35;;;2.45;;
51451;SDS011;37521;52.020;-1.740;2023-10-13T08:24:53;7.35;;;1.58;;
51451;SDS011;37521;52.020;-1.740;2023-10-13T08:27:42;8.00;;;1.55;;
51451;SDS011;37521;52.020;-1.740;2023-10-13T08:30:17;6.68;;;1.30;;
51451;SDS011;37521;52.020;-1.740;2023-10-13T08:32:57;7.15;;;1.15;;
51451;SDS011;37521;52.020;-1.740;2023-10-13T08:35:43;12.18;;;1.52;;
51451;SDS011;37521;52.020;-1.740;2023-10-13T08:38:32;7.03;;;2.00;;
51451;SDS011;37521;52.020;-1.740;2023-10-13T08:41:18;8.48;;;1.17;;
51451;SDS011;37521;52.020;-1.740;2023-10-13T08:44:17;3.88;;;1.63;;
51451;SDS011;37521;52.020;-1.740;2023-10-13T08:47:11;5.65;;;1.42;;
51451;SDS011;37521;52.020;-1.740;2023-10-13T08:49:45;1.98;;;1.33;;
51451;SDS011;37521;52.020;-1.740;2023-10-13T08:52:19;4.72;;;1.25;;
51451;SDS011;37521;52.020;-1.740;2023-10-13T08:55:16;5.80;;;1.60;;
51451;SDS011;37521;52.020;-1.740;2023-10-13T08:58:06;1.95;;;1.17;;
51451;SDS011;37521;52.020;-1.740;2023-10-13T09:00:41;8.02;;;1.42;;
51451;SDS011;37521;52.020;-1.740;2023-10-13T09:03:29;7.07;;;1.42;;
51451;SDS011;37521;52.020;-1.740;2023-10-13T09:06:07;4.05;;;1.15;;
51451;SDS011;37521;52.020;-1.740;2023-10-13T09:08:42;3.70;;;1.10;;
51451;SDS011;37521;52.020;-1.740;2023-10-13T09:11:33;4.97;;;0.95;;
51451;SDS011;37521;52.020;-1.740;2023-10-13T09:14:16;2.00;;;0.60;;
51451;SDS011;37521;52.020;-1.740;2023-10-13T09:17:02;2.03;;;0.70;;
51451;SDS011;37521;52.020;-1.740;2023-10-13T09:20:01;1.95;;;0.65;;
51451;SDS011;37521;52.020;-1.740;2023-10-13T09:22:52;5.40;;;1.05;;
51451;SDS011;37521;52.020;-1.740;2023-10-13T09:25:34;4.05;;;0.88;;
51451;SDS011;37521;52.020;-1.740;2023-10-13T09:28:10;7.55;;;0.95;;
51451;SDS011;37521;52.020;-1.740;2023-10-13T09:30:44;4.13;;;0.80;;
51451;SDS011;37521;52.020;-1.740;2023-10-13T09:33:12;4.05;;;1.25;;
51451;SDS011;37521;52.020;-1.740;2023-10-13T09:35:43;3.08;;;0.68;;
51451;SDS011;37521;52.020;-1.740;2023-10-13T09:38:17;5.47;;;0.88;;
51451;SDS011;37521;52.020;-1.740;2023-10-13T09:40:47;2.38;;;0.60;;
51451;SDS011;37521;52.020;-1.740;2023-10-13T09:43:17;5.07;;;1.00;;
51451;SDS011;37521;52.020;-1.740;2023-10-13T09:45:46;1.77;;;0.50;;
51451;SDS011;37521;52.020;-1.740;2023-10-13T09:48:33;4.47;;;1.17;;
51451;SDS011;37521;52.020;-1.740;2023-10-13T09:51:04;4.68;;;0.57;;
51451;SDS011;37521;52.020;-1.740;2023-10-13T09:53:37;4.53;;;0.80;;
51451;SDS011;37521;52.020;-1.740;2023-10-13T09:56:28;3.35;;;1.00;;
51451;SDS011;37521;52.020;-1.740;2023-10-13T09:59:01;4.97;;;1.20;;
51451;SDS011;37521;52.020;-1.740;2023-10-13T10:01:39;3.20;;;0.85;;
51451;SDS011;37521;52.020;-1.740;2023-10-13T10:04:17;5.38;;;1.02;;
51451;SDS011;37521;52.020;-1.740;2023-10-13T10:06:53;2.15;;;0.70;;
51451;SDS011;37521;52.020;-1.740;2023-10-13T10:09:27;5.13;;;1.10;;
51451;SDS011;37521;52.020;-1.740;2023-10-13T10:12:06;4.82;;;1.33;;
51451;SDS011;37521;52.020;-1.740;2023-10-13T10:14:56;5.18;;;0.85;;
51451;SDS011;37521;52.020;-1.740;2023-10-13T10:17:40;1.70;;;0.73;;
51451;SDS011;37521;52.020;-1.740;2023-10-13T10:20:10;4.28;;;0.60;;
51451;SDS011;37521;52.020;-1.740;2023-10-13T10:22:59;0.75;;;0.63;;
51451;SDS011;37521;52.020;-1.740;2023-10-13T10:25:30;3.80;;;1.10;;
51451;SDS011;37521;52.020;-1.740;2023-10-13T10:28:02;2.75;;;0.80;;
51451;SDS011;37521;52.020;-1.740;2023-10-13T10:30:33;2.30;;;0.55;;
51451;SDS011;37521;52.020;-1.740;2023-10-13T10:33:05;4.07;;;0.60;;
51451;SDS011;37521;52.020;-1.740;2023-10-13T10:35:40;2.22;;;0.40;;
51451;SDS011;37521;52.020;-1.740;2023-10-13T10:38:13;1.65;;;0.40;;
51451;SDS011;37521;52.020;-1.740;2023-10-13T10:40:52;0.88;;;0.52;;
51451;SDS011;37521;52.020;-1.740;2023-10-13T10:43:26;1.98;;;1.10;;
51451;SDS011;37521;52.020;-1.740;2023-10-13T10:45:59;4.85;;;0.82;;
51451;SDS011;37521;52.020;-1.740;2023-10-13T10:48:30;0.45;;;0.40;;
51451;SDS011;37521;52.020;-1.740;2023-10-13T10:51:01;5.00;;;0.98;;
51451;SDS011;37521;52.020;-1.740;2023-10-13T10:53:41;1.75;;;0.63;;
51451;SDS011;37521;52.020;-1.740;2023-10-13T10:56:15;2.67;;;0.65;;
51451;SDS011;37521;52.020;-1.740;2023-10-13T10:58:49;0.57;;;0.47;;
51451;SDS011;37521;52.020;-1.740;2023-10-13T11:01:22;6.00;;;1.08;;
51451;SDS011;37521;52.020;-1.740;2023-10-13T11:03:58;1.65;;;0.43;;
51451;SDS011;37521;52.020;-1.740;2023-10-13T11:06:34;5.78;;;0.60;;
51451;SDS011;37521;52.020;-1.740;2023-10-13T11:09:09;1.02;;;0.40;;
51451;SDS011;37521;52.020;-1.740;2023-10-13T11:11:56;1.20;;;0.60;;
51451;SDS011;37521;52.020;-1.740;2023-10-13T11:14:25;2.35;;;0.60;;
51451;SDS011;37521;52.020;-1.740;2023-10-13T11:16:54;1.70;;;0.40;;
51451;SDS011;37521;52.020;-1.740;2023-10-13T11:22:12;2.17;;;0.50;;
51451;SDS011;37521;52.020;-1.740;2023-10-13T11:24:56;0.43;;;0.22;;
51451;SDS011;37521;52.020;-1.740;2023-10-13T11:27:31;0.80;;;0.77;;
51451;SDS011;37521;52.020;-1.740;2023-10-13T11:30:23;1.65;;;0.35;;
51451;SDS011;37521;52.020;-1.740;2023-10-13T11:33:09;1.48;;;0.40;;
51451;SDS011;37521;52.020;-1.740;2023-10-13T11:35:38;1.25;;;0.32;;
51451;SDS011;37521;52.020;-1.740;2023-10-13T11:38:23;1.65;;;0.55;;
51451;SDS011;37521;52.020;-1.740;2023-10-13T11:40:56;1.58;;;0.35;;
51451;SDS011;37521;52.020;-1.740;2023-10-13T11:43:44;0.63;;;0.43;;
51451;SDS011;37521;52.020;-1.740;2023-10-13T11:46:31;3.30;;;0.47;;
51451;SDS011;37521;52.020;-1.740;2023-10-13T11:49:23;0.30;;;0.30;;
51451;SDS011;37521;52.020;-1.740;2023-10-13T11:52:04;0.13;;;0.10;;
51451;SDS011;37521;52.020;-1.740;2023-10-13T11:54:44;1.88;;;0.20;;
51451;SDS011;37521;52.020;-1.740;2023-10-13T11:57:14;1.10;;;0.80;;
51451;SDS011;37521;52.020;-1.740;2023-10-13T11:59:48;0.85;;;0.30;;
51451;SDS011;37521;52.020;-1.740;2023-10-13T12:02:46;1.27;;;0.52;;
51451;SDS011;37521;52.020;-1.740;2023-10-13T12:05:32;0.20;;;0.20;;
51451;SDS011;37521;52.020;-1.740;2023-10-13T12:08:16;2.05;;;0.28;;
51451;SDS011;37521;52.020;-1.740;2023-10-13T12:11:01;1.48;;;0.28;;
51451;SDS011;37521;52.020;-1.740;2023-10-13T12:13:50;0.47;;;0.13;;
51451;SDS011;37521;52.020;-1.740;2023-10-13T12:16:20;0.13;;;0.13;;
51451;SDS011;37521;52.020;-1.740;2023-10-13T12:18:49;1.02;;;0.10;;
51451;SDS011;37521;52.020;-1.740;2023-10-13T12:21:20;1.88;;;0.35;;
51451;SDS011;37521;52.020;-1.740;2023-10-13T12:23:48;1.52;;;0.25;;
51451;SDS011;37521;52.020;-1.740;2023-10-13T12:26:17;0.55;;;0.50;;
51451;SDS011;37521;52.020;-1.740;2023-10-13T12:28:47;1.05;;;0.20;;
51451;SDS011;37521;52.020;-1.740;2023-10-13T12:31:20;1.35;;;0.50;;
51451;SDS011;37521;52.020;-1.740;2023-10-13T12:33:54;2.35;;;0.38;;
51451;SDS011;37521;52.020;-1.740;2023-10-13T12:36:24;0.20;;;0.20;;
51451;SDS011;37521;52.020;-1.740;2023-10-13T12:39:07;0.40;;;0.40;;
51451;SDS011;37521;52.020;-1.740;2023-10-13T12:41:53;0.77;;;0.30;;
51451;SDS011;37521;52.020;-1.740;2023-10-13T12:44:39;2.20;;;0.20;;
51451;SDS011;37521;52.020;-1.740;2023-10-13T12:47:26;0.50;;;0.30;;
51451;SDS011;37521;52.020;-1.740;2023-10-13T12:50:12;0.93;;;0.30;;
51451;SDS011;37521;52.020;-1.740;2023-10-13T12:53:01;0.43;;;0.43;;
51451;SDS011;37521;52.020;-1.740;2023-10-13T12:55:29;0.65;;;0.13;;
51451;SDS011;37521;52.020;-1.740;2023-10-13T12:57:58;1.17;;;0.20;;
51451;SDS011;37521;52.020;-1.740;2023-10-13T13:00:26;2.53;;;0.38;;
51451;SDS011;37521;52.020;-1.740;2023-10-13T13:03:02;0.82;;;0.25;;
51451;SDS011;37521;52.020;-1.740;2023-10-13T13:05:38;2.30;;;0.10;;
51451;SDS011;37521;52.020;-1.740;2023-10-13T13:08:11;2.28;;;0.38;;
51451;SDS011;37521;52.020;-1.740;2023-10-13T13:10:49;0.00;;;0.00;;
51451;SDS011;37521;52.020;-1.740;2023-10-13T13:13:19;0.28;;;0.10;;
51451;SDS011;37521;52.020;-1.740;2023-10-13T13:15:52;0.65;;;0.30;;
51451;SDS011;37521;52.020;-1.740;2023-10-13T13:18:22;1.30;;;0.40;;
51451;SDS011;37521;52.020;-1.740;2023-10-13T13:20:50;0.50;;;0.40;;
51451;SDS011;37521;52.020;-1.740;2023-10-13T13:23:23;0.30;;;0.28;;
51451;SDS011;37521;52.020;-1.740;2023-10-13T13:25:53;0.65;;;0.30;;
51451;SDS011;37521;52.020;-1.740;2023-10-13T13:28:24;0.60;;;0.20;;
51451;SDS011;37521;52.020;-1.740;2023-10-13T13:30:56;3.83;;;0.38;;
51451;SDS011;37521;52.020;-1.740;2023-10-13T13:33:26;0.63;;;0.10;;
51451;SDS011;37521;52.020;-1.740;2023-10-13T13:36:00;3.47;;;0.13;;
51451;SDS011;37521;52.020;-1.740;2023-10-13T13:38:31;0.82;;;0.40;;
51451;SDS011;37521;52.020;-1.740;2023-10-13T13:41:00;2.53;;;0.20;;
51451;SDS011;37521;52.020;-1.740;2023-10-13T13:43:30;0.38;;;0.20;;
51451;SDS011;37521;52.020;-1.740;2023-10-13T13:46:18;2.17;;;0.60;;
51451;SDS011;37521;52.020;-1.740;2023-10-13T13:48:53;1.55;;;0.30;;
51451;SDS011;37521;52.020;-1.740;2023-10-13T13:51:26;0.68;;;0.30;;
51451;SDS011;37521;52.020;-1.740;2023-10-13T13:53:55;1.00;;;0.60;;
51451;SDS011;37521;52.020;-1.740;2023-10-13T13:56:24;5.40;;;0.50;;
51451;SDS011;37521;52.020;-1.740;2023-10-13T13:58:55;1.60;;;0.25;;
51451;SDS011;37521;52.020;-1.740;2023-10-13T14:01:23;1.52;;;0.40;;
51451;SDS011;37521;52.020;-1.740;2023-10-13T14:03:54;1.42;;;0.28;;
51451;SDS011;37521;52.020;-1.740;2023-10-13T14:06:29;0.68;;;0.30;;
51451;SDS011;37521;52.020;-1.740;2023-10-13T14:08:59;2.67;;;0.45;;
51451;SDS011;37521;52.020;-1.740;2023-10-13T14:11:30;1.33;;;0.55;;
51451;SDS011;37521;52.020;-1.740;2023-10-13T14:14:16;1.10;;;0.45;;
51451;SDS011;37521;52.020;-1.740;2023-10-13T14:19:36;0.35;;;0.15;;
51451;SDS011;37521;52.020;-1.740;2023-10-13T14:24:39;4.53;;;0.60;;
51451;SDS011;37521;52.020;-1.740;2023-10-13T14:27:14;1.65;;;0.43;;
51451;SDS011;37521;52.020;-1.740;2023-10-13T14:29:46;0.95;;;0.20;;
51451;SDS011;37521;52.020;-1.740;2023-10-13T14:32:14;3.05;;;0.52;;
51451;SDS011;37521;52.020;-1.740;2023-10-13T14:34:45;1.92;;;0.63;;
51451;SDS011;37521;52.020;-1.740;2023-10-13T14:37:15;4.13;;;0.60;;
51451;SDS011;37521;52.020;-1.740;2023-10-13T14:39:53;3.05;;;0.63;;
51451;SDS011;37521;52.020;-1.740;2023-10-13T14:42:24;0.38;;;0.22;;
51451;SDS011;37521;52.020;-1.740;2023-10-13T14:44:53;3.15;;;0.90;;
51451;SDS011;37521;52.020;-1.740;2023-10-13T14:47:25;0.20;;;0.20;;
51451;SDS011;37521;52.020;-1.740;2023-10-13T14:49:55;1.92;;;0.30;;
51451;SDS011;37521;52.020;-1.740;2023-10-13T14:52:27;1.75;;;0.38;;
51451;SDS011;37521;52.020;-1.740;2023-10-13T14:54:59;1.35;;;0.32;;
51451;SDS011;37521;52.020;-1.740;2023-10-13T14:57:27;0.10;;;0.10;;
51451;SDS011;37521;52.020;-1.740;2023-10-13T14:59:56;0.10;;;0.10;;
51451;SDS011;37521;52.020;-1.740;2023-10-13T15:02:24;0.03;;;0.03;;
51451;SDS011;37521;52.020;-1.740;2023-10-13T15:04:53;0.25;;;0.10;;
51451;SDS011;37521;52.020;-1.740;2023-10-13T15:07:23;0.00;;;0.00;;
51451;SDS011;37521;52.020;-1.740;2023-10-13T15:09:54;0.08;;;0.08;;
51451;SDS011;37521;52.020;-1.740;2023-10-13T15:12:23;0.10;;;0.10;;
51451;SDS011;37521;52.020;-1.740;2023-10-13T15:14:55;0.20;;;0.10;;
51451;SDS011;37521;52.020;-1.740;2023-10-13T15:17:25;0.20;;;0.00;;
51451;SDS011;37521;52.020;-1.740;2023-10-13T15:19:56;0.75;;;0.45;;
51451;SDS011;37521;52.020;-1.740;2023-10-13T15:22:28;0.20;;;0.20;;
51451;SDS011;37521;52.020;-1.740;2023-10-13T15:24:57;0.10;;;0.10;;
51451;SDS011;37521;52.020;-1.740;2023-10-13T15:27:36;0.13;;;0.13;;
51451;SDS011;37521;52.020;-1.740;2023-10-13T15:30:08;0.13;;;0.13;;
51451;SDS011;37521;52.020;-1.740;2023-10-13T15:32:47;0.20;;;0.20;;
51451;SDS011;37521;52.020;-1.740;2023-10-13T15:35:16;0.30;;;0.30;;
51451;SDS011;37521;52.020;-1.740;2023-10-13T15:37:46;0.75;;;0.10;;